createdAt,value
2022-10-25T00:00:23.444Z,3.40
2022-10-25T00:02:50.116Z,3.65
2022-10-25T00:05:16.630Z,3.15
2022-10-25T00:07:43.394Z,3.67
2022-10-25T00:10:10.093Z,3.55
2022-10-25T00:12:41.895Z,3.63
2022-10-25T00:15:08.910Z,4.10
2022-10-25T00:17:35.401Z,3.50
2022-10-25T00:20:02.002Z,3.40
2022-10-25T00:22:29.127Z,3.10
2022-10-25T00:24:55.584Z,3.42
2022-10-25T00:27:22.033Z,3.30
2022-10-25T00:29:48.577Z,3.40
2022-10-25T00:32:15.048Z,2.97
2022-10-25T00:34:41.648Z,3.70
2022-10-25T00:37:08.165Z,3.28
2022-10-25T00:39:34.626Z,3.60
2022-10-25T00:42:02.510Z,3.35
2022-10-25T00:44:41.133Z,3.63
2022-10-25T00:47:19.460Z,3.30
2022-10-25T00:50:15.548Z,3.15
2022-10-25T00:52:42.918Z,2.95
2022-10-25T00:55:10.060Z,3.05
2022-10-25T00:57:53.890Z,3.10
2022-10-25T01:00:20.707Z,3.15
2022-10-25T01:02:47.509Z,3.55
2022-10-25T01:05:15.710Z,2.50
2022-10-25T01:07:42.238Z,2.80
2022-10-25T01:10:08.823Z,3.00
2022-10-25T01:12:35.290Z,2.50
2022-10-25T01:15:02.638Z,2.80
2022-10-25T01:17:51.773Z,2.58
2022-10-25T01:20:26.911Z,2.58
2022-10-25T01:23:09.224Z,2.15
2022-10-25T01:26:12.991Z,2.88
2022-10-25T01:29:11.996Z,2.53
2022-10-25T01:31:43.685Z,2.45
2022-10-25T01:34:14.287Z,2.70
2022-10-25T01:37:00.983Z,2.80
2022-10-25T01:39:42.089Z,2.65
2022-10-25T01:42:43.800Z,2.60
2022-10-25T01:45:19.966Z,3.45
2022-10-25T01:47:50.376Z,2.80
2022-10-25T01:50:26.777Z,3.33
2022-10-25T01:55:29.814Z,2.78
2022-10-25T01:58:08.599Z,3.08
2022-10-25T02:00:47.653Z,2.67
2022-10-25T02:03:18.095Z,3.03
2022-10-25T02:06:10.694Z,2.88
2022-10-25T02:08:47.059Z,3.40
2022-10-25T02:11:16.187Z,2.55
2022-10-25T02:13:54.441Z,2.67
2022-10-25T02:16:25.566Z,2.45
2022-10-25T02:18:56.464Z,3.35
2022-10-25T02:21:25.314Z,2.35
2022-10-25T02:23:53.074Z,2.90
2022-10-25T02:26:19.882Z,3.22
2022-10-25T02:28:47.004Z,3.33
2022-10-25T02:31:16.267Z,3.20
2022-10-25T02:33:46.593Z,3.58
2022-10-25T02:36:20.010Z,2.58
2022-10-25T02:38:47.087Z,3.15
2022-10-25T02:41:13.800Z,2.50
2022-10-25T02:43:40.352Z,2.88
2022-10-25T02:46:08.861Z,4.13
2022-10-25T02:48:36.205Z,2.28
2022-10-25T02:51:04.379Z,2.88
2022-10-25T02:53:31.751Z,2.38
2022-10-25T02:56:02.093Z,3.03
2022-10-25T02:58:32.929Z,3.33
2022-10-25T03:01:00.263Z,2.65
2022-10-25T03:03:27.349Z,2.65
2022-10-25T03:05:54.113Z,2.65
2022-10-25T03:08:20.717Z,2.75
2022-10-25T03:10:47.471Z,2.25
2022-10-25T03:13:14.124Z,2.58
2022-10-25T03:15:40.612Z,2.22
2022-10-25T03:18:07.103Z,2.50
2022-10-25T03:20:33.624Z,2.13
2022-10-25T03:23:00.099Z,2.13
2022-10-25T03:25:26.629Z,1.92
2022-10-25T03:27:53.104Z,2.10
2022-10-25T03:30:19.722Z,2.25
2022-10-25T03:32:46.211Z,1.85
2022-10-25T03:35:12.740Z,1.80
2022-10-25T03:37:39.261Z,2.20
2022-10-25T03:40:06.220Z,2.10
2022-10-25T03:42:32.688Z,2.05
2022-10-25T03:44:59.224Z,2.30
2022-10-25T03:47:25.679Z,2.28
2022-10-25T03:49:52.169Z,2.05
2022-10-25T03:52:18.693Z,2.83
2022-10-25T03:54:45.230Z,2.08
2022-10-25T03:57:11.693Z,2.08
2022-10-25T03:59:38.164Z,2.40
2022-10-25T04:02:04.694Z,1.92
2022-10-25T04:04:31.243Z,2.30
2022-10-25T04:06:57.733Z,2.13
2022-10-25T04:09:24.223Z,2.20
2022-10-25T04:11:50.692Z,2.38
2022-10-25T04:14:17.178Z,1.77
2022-10-25T04:16:43.651Z,2.47
2022-10-25T04:19:10.186Z,2.20
2022-10-25T04:21:36.820Z,2.05
2022-10-25T04:24:04.572Z,2.35
2022-10-25T04:26:31.351Z,2.40
2022-10-25T04:28:57.836Z,2.90
2022-10-25T04:31:24.304Z,2.53
2022-10-25T04:33:51.527Z,2.10
2022-10-25T04:36:18.391Z,2.63
2022-10-25T04:38:48.186Z,2.35
2022-10-25T04:41:14.750Z,2.58
2022-10-25T04:43:41.840Z,2.40
2022-10-25T04:46:08.439Z,2.22
2022-10-25T04:48:39.116Z,2.17
2022-10-25T04:51:05.854Z,2.38
2022-10-25T04:53:32.524Z,2.60
2022-10-25T04:56:00.698Z,2.33
2022-10-25T04:58:31.223Z,2.25
2022-10-25T05:01:01.512Z,2.40
2022-10-25T05:03:29.423Z,2.30
2022-10-25T05:05:55.988Z,2.90
2022-10-25T05:08:22.455Z,2.22
2022-10-25T05:10:54.946Z,2.03
2022-10-25T05:13:21.465Z,3.40
2022-10-25T05:15:57.940Z,2.08
2022-10-25T05:18:24.521Z,2.38
2022-10-25T05:20:59.416Z,3.33
2022-10-25T05:23:27.491Z,2.90
2022-10-25T05:26:32.299Z,2.40
2022-10-25T05:28:59.017Z,2.47
2022-10-25T05:31:30.114Z,2.92
2022-10-25T05:34:00.043Z,2.72
2022-10-25T05:36:29.415Z,2.67
2022-10-25T05:38:56.625Z,3.33
2022-10-25T05:41:23.152Z,2.60
2022-10-25T05:43:49.691Z,2.22
2022-10-25T05:46:18.432Z,2.63
2022-10-25T05:48:48.797Z,2.72
2022-10-25T05:51:40.341Z,2.60
2022-10-25T05:54:10.485Z,2.80
2022-10-25T05:56:37.740Z,3.10
2022-10-25T05:59:14.975Z,2.35
2022-10-25T06:01:44.298Z,2.28
2022-10-25T06:04:11.464Z,2.60
2022-10-25T06:06:39.147Z,2.70
2022-10-25T06:09:06.310Z,2.40
2022-10-25T06:11:33.071Z,2.70
2022-10-25T06:13:59.537Z,2.67
2022-10-25T06:16:26.162Z,2.88
2022-10-25T06:18:53.770Z,3.50
2022-10-25T06:21:23.348Z,2.58
2022-10-25T06:23:49.985Z,2.70
2022-10-25T06:26:19.198Z,3.20
2022-10-25T06:28:45.721Z,2.95
2022-10-25T06:31:14.951Z,2.80
2022-10-25T06:33:41.949Z,2.95
2022-10-25T06:36:13.249Z,3.33
2022-10-25T06:38:40.097Z,3.10
2022-10-25T06:41:11.537Z,3.25
2022-10-25T06:43:38.791Z,2.97
2022-10-25T06:46:10.666Z,3.13
2022-10-25T06:48:37.331Z,2.90
2022-10-25T06:51:09.658Z,2.88
2022-10-25T06:53:36.784Z,2.88
2022-10-25T06:56:05.990Z,3.08
2022-10-25T06:58:35.158Z,2.33
2022-10-25T07:01:06.157Z,3.33
2022-10-25T07:03:36.114Z,3.05
2022-10-25T07:06:05.042Z,3.08
2022-10-25T07:08:32.553Z,3.45
2022-10-25T07:10:58.995Z,3.00
2022-10-25T07:13:25.512Z,2.90
2022-10-25T07:15:52.214Z,3.03
2022-10-25T07:18:18.818Z,3.45
2022-10-25T07:20:48.630Z,3.22
2022-10-25T07:23:16.035Z,2.40
2022-10-25T07:25:43.058Z,3.10
2022-10-25T07:28:10.158Z,2.95
2022-10-25T07:30:36.625Z,2.67
2022-10-25T07:33:03.268Z,2.45
2022-10-25T07:35:31.183Z,2.50
2022-10-25T07:38:02.077Z,2.53
2022-10-25T07:40:28.833Z,2.90
2022-10-25T07:42:55.363Z,3.15
2022-10-25T07:45:24.411Z,2.33
2022-10-25T07:47:53.047Z,2.90
2022-10-25T07:50:19.691Z,2.40
2022-10-25T07:52:46.512Z,3.30
2022-10-25T07:55:13.402Z,2.80
2022-10-25T07:57:40.133Z,2.60
2022-10-25T08:00:07.936Z,2.47
2022-10-25T08:02:34.425Z,2.17
2022-10-25T08:05:01.745Z,2.72
2022-10-25T08:07:28.528Z,2.38
2022-10-25T08:09:55.047Z,2.83
2022-10-25T08:12:22.594Z,1.92
2022-10-25T08:14:49.862Z,2.45
2022-10-25T08:17:17.895Z,1.75
2022-10-25T08:19:48.766Z,2.08
2022-10-25T08:22:17.509Z,1.88
2022-10-25T08:24:44.125Z,1.98
2022-10-25T08:27:10.714Z,1.98
2022-10-25T08:29:37.254Z,2.13
2022-10-25T08:32:03.903Z,2.30
2022-10-25T08:34:33.091Z,1.73
2022-10-25T08:36:59.866Z,2.60
2022-10-25T08:39:26.334Z,1.92
2022-10-25T08:41:55.996Z,1.73
2022-10-25T08:44:28.191Z,3.30
2022-10-25T08:47:27.154Z,2.10
2022-10-25T08:50:05.714Z,1.98
2022-10-25T08:52:41.369Z,1.42
2022-10-25T08:55:29.808Z,2.22
2022-10-25T08:57:56.983Z,2.03
2022-10-25T09:00:24.430Z,2.30
2022-10-25T09:02:54.339Z,1.83
2022-10-25T09:05:39.462Z,1.50
2022-10-25T09:08:32.198Z,1.83
2022-10-25T09:11:16.640Z,1.95
2022-10-25T09:13:50.946Z,2.03
2022-10-25T09:16:36.301Z,1.70
2022-10-25T09:19:04.001Z,1.95
2022-10-25T09:21:56.939Z,2.88
2022-10-25T09:24:28.797Z,1.85
2022-10-25T09:27:14.280Z,1.98
2022-10-25T09:29:50.642Z,2.08
2022-10-25T09:32:33.913Z,2.50
2022-10-25T09:35:01.349Z,1.88
2022-10-25T09:37:32.836Z,1.52
2022-10-25T09:40:18.025Z,1.50
2022-10-25T09:45:45.405Z,1.90
2022-10-25T09:48:22.257Z,1.25
2022-10-25T09:50:50.851Z,1.70
2022-10-25T09:53:21.614Z,1.55
2022-10-25T09:55:58.312Z,1.35
2022-10-25T09:58:28.691Z,1.80
2022-10-25T10:00:57.420Z,1.47
2022-10-25T10:03:30.946Z,1.40
2022-10-25T10:06:01.963Z,1.60
2022-10-25T10:08:32.367Z,1.67
2022-10-25T10:10:59.491Z,1.70
2022-10-25T10:13:47.638Z,1.75
2022-10-25T10:16:35.860Z,1.75
2022-10-25T10:19:15.440Z,1.65
2022-10-25T10:21:46.343Z,1.88
2022-10-25T10:24:42.637Z,1.83
2022-10-25T10:27:24.233Z,1.90
2022-10-25T10:29:59.225Z,1.52
2022-10-25T10:32:32.170Z,2.45
2022-10-25T10:34:59.132Z,2.17
2022-10-25T10:37:30.117Z,1.80
2022-10-25T10:40:03.874Z,1.95
2022-10-25T10:45:13.142Z,1.63
2022-10-25T10:47:48.620Z,1.40
2022-10-25T10:50:24.198Z,1.60
2022-10-25T10:53:02.938Z,1.40
2022-10-25T10:55:32.105Z,1.33
2022-10-25T10:58:07.257Z,1.70
2022-10-25T11:00:34.532Z,1.58
2022-10-25T11:03:01.070Z,1.48
2022-10-25T11:05:31.510Z,1.38
2022-10-25T11:08:03.389Z,1.93
2022-10-25T11:10:32.222Z,1.30
2022-10-25T11:13:15.857Z,1.20
2022-10-25T11:16:23.102Z,1.20
2022-10-25T11:19:07.273Z,1.20
2022-10-25T11:21:58.414Z,1.33
2022-10-25T11:24:32.246Z,0.95
2022-10-25T11:27:15.108Z,1.10
2022-10-25T11:30:01.556Z,0.95
2022-10-25T11:32:54.193Z,1.30
2022-10-25T11:35:45.399Z,0.98
2022-10-25T11:38:33.575Z,1.08
2022-10-25T11:41:30.805Z,1.33
2022-10-25T11:44:08.983Z,1.65
2022-10-25T11:47:14.268Z,1.20
2022-10-25T11:50:11.598Z,1.10
2022-10-25T11:52:55.978Z,1.33
2022-10-25T11:55:34.992Z,1.17
2022-10-25T11:58:26.032Z,1.25
2022-10-25T12:01:07.047Z,1.20
2022-10-25T12:03:47.867Z,1.08
2022-10-25T12:06:26.198Z,1.05
2022-10-25T12:09:07.776Z,1.33
2022-10-25T12:11:42.135Z,1.08
2022-10-25T12:14:14.007Z,1.38
2022-10-25T12:16:41.435Z,1.17
2022-10-25T12:19:15.141Z,1.20
2022-10-25T12:21:50.774Z,1.67
2022-10-25T12:24:24.415Z,1.10
2022-10-25T12:26:53.554Z,1.00
2022-10-25T12:29:37.396Z,1.75
2022-10-25T12:32:09.151Z,1.10
2022-10-25T12:34:55.868Z,1.45
2022-10-25T12:37:28.773Z,1.48
2022-10-25T12:39:56.294Z,1.20
2022-10-25T12:42:26.935Z,1.15
2022-10-25T12:45:05.496Z,1.10
2022-10-25T12:47:38.847Z,1.17
2022-10-25T12:50:08.307Z,1.50
2022-10-25T12:52:42.301Z,1.38
2022-10-25T12:55:21.271Z,1.45
2022-10-25T12:58:02.964Z,1.40
2022-10-25T13:00:37.539Z,1.48
2022-10-25T13:03:42.998Z,1.88
2022-10-25T13:06:28.075Z,1.40
2022-10-25T13:08:59.901Z,1.30
2022-10-25T13:11:34.663Z,1.15
2022-10-25T13:14:01.829Z,1.50
2022-10-25T13:16:33.242Z,2.33
2022-10-25T13:21:53.227Z,1.50
2022-10-25T13:24:42.055Z,1.38
2022-10-25T13:27:26.489Z,1.10
2022-10-25T13:30:03.959Z,1.20
2022-10-25T13:32:33.448Z,1.25
2022-10-25T13:35:00.131Z,1.45
2022-10-25T13:37:32.480Z,1.20
2022-10-25T13:40:00.152Z,1.23
2022-10-25T13:42:31.946Z,1.75
2022-10-25T13:45:06.680Z,1.20
2022-10-25T13:47:40.156Z,1.30
2022-10-25T13:53:01.558Z,1.15
2022-10-25T13:55:45.427Z,1.67
2022-10-25T13:58:41.304Z,1.13
2022-10-25T14:01:17.032Z,1.08
2022-10-25T14:04:01.713Z,1.10
2022-10-25T14:06:37.731Z,1.27
2022-10-25T14:09:23.828Z,1.17
2022-10-25T14:12:02.250Z,1.23
2022-10-25T14:14:33.607Z,0.90
2022-10-25T14:19:41.490Z,1.00
2022-10-25T14:22:40.600Z,1.25
2022-10-25T14:25:22.026Z,1.27
2022-10-25T14:27:48.507Z,1.27
2022-10-25T14:30:28.217Z,1.27
2022-10-25T14:32:59.410Z,1.40
2022-10-25T14:35:31.998Z,1.48
2022-10-25T14:37:58.627Z,1.10
2022-10-25T14:40:29.226Z,1.13
2022-10-25T14:42:55.967Z,1.48
2022-10-25T14:45:24.869Z,1.17
2022-10-25T14:47:51.468Z,1.00
2022-10-25T14:50:21.496Z,1.20
2022-10-25T14:52:49.810Z,1.00
2022-10-25T14:55:21.917Z,1.55
2022-10-25T14:57:48.692Z,1.52
2022-10-25T15:00:21.027Z,0.90
2022-10-25T15:02:49.557Z,1.60
2022-10-25T15:05:21.547Z,1.30
2022-10-25T15:07:49.081Z,1.20
2022-10-25T15:10:30.674Z,1.10
2022-10-25T15:15:53.380Z,1.40
2022-10-25T15:18:36.382Z,1.23
2022-10-25T15:21:14.401Z,1.17
2022-10-25T15:23:42.255Z,1.27
2022-10-25T15:26:24.137Z,1.50
2022-10-25T15:28:55.207Z,1.48
2022-10-25T15:31:27.072Z,1.73
2022-10-25T15:34:01.293Z,1.38
2022-10-25T15:36:30.049Z,1.23
2022-10-25T15:39:09.015Z,0.90
2022-10-25T15:41:38.100Z,1.25
2022-10-25T15:44:04.586Z,1.50
2022-10-25T15:46:36.283Z,1.17
2022-10-25T15:49:08.120Z,1.30
2022-10-25T15:51:37.508Z,1.30
2022-10-25T15:54:04.054Z,1.40
2022-10-25T15:56:30.593Z,1.00
2022-10-25T15:58:58.639Z,1.30
2022-10-25T16:01:25.335Z,1.63
2022-10-25T16:03:51.942Z,1.75
2022-10-25T16:06:18.505Z,1.90
2022-10-25T16:08:45.722Z,1.40
2022-10-25T16:11:15.335Z,1.50
2022-10-25T16:13:43.412Z,2.13
2022-10-25T16:16:38.496Z,2.03
2022-10-25T16:19:03.737Z,1.83
2022-10-25T16:21:30.651Z,1.70
2022-10-25T16:23:57.127Z,1.70
2022-10-25T16:26:43.802Z,1.85
2022-10-25T16:29:15.399Z,1.98
2022-10-25T16:31:42.215Z,1.80
2022-10-25T16:34:09.157Z,2.08
2022-10-25T16:36:35.635Z,2.45
2022-10-25T16:39:02.894Z,2.10
2022-10-25T16:41:29.710Z,2.38
2022-10-25T16:43:58.031Z,1.80
2022-10-25T16:46:25.408Z,2.10
2022-10-25T16:48:52.092Z,2.20
2022-10-25T16:51:19.582Z,2.00
2022-10-25T16:53:47.319Z,2.80
2022-10-25T16:56:14.289Z,2.78
2022-10-25T16:58:41.505Z,2.03
2022-10-25T17:01:21.676Z,2.40
2022-10-25T17:03:51.929Z,1.60
2022-10-25T17:06:40.379Z,1.85
2022-10-25T17:09:06.475Z,2.33
2022-10-25T17:11:33.019Z,2.05
2022-10-25T17:13:59.485Z,2.40
2022-10-25T17:16:26.010Z,2.03
2022-10-25T17:18:52.464Z,2.60
2022-10-25T17:21:18.979Z,2.38
2022-10-25T17:23:45.493Z,2.72
2022-10-25T17:26:12.017Z,2.70
2022-10-25T17:28:43.054Z,1.95
2022-10-25T17:31:12.714Z,2.47
2022-10-25T17:33:39.257Z,1.95
2022-10-25T17:36:10.991Z,1.90
2022-10-25T17:38:37.871Z,2.00
2022-10-25T17:41:04.708Z,2.85
2022-10-25T17:43:31.680Z,2.03
2022-10-25T17:46:02.577Z,3.03
2022-10-25T17:48:29.296Z,2.97
2022-10-25T17:51:09.501Z,2.00
2022-10-25T17:53:36.312Z,2.20
2022-10-25T17:56:13.745Z,2.72
2022-10-25T17:58:41.792Z,2.10
2022-10-25T18:01:09.427Z,2.50
2022-10-25T18:03:37.076Z,2.53
2022-10-25T18:06:06.406Z,2.65
2022-10-25T18:08:32.998Z,2.80
2022-10-25T18:10:59.533Z,2.90
2022-10-25T18:13:28.671Z,3.03
2022-10-25T18:15:55.232Z,4.03
2022-10-25T18:18:21.832Z,3.60
2022-10-25T18:20:51.462Z,3.20
2022-10-25T18:23:18.214Z,3.65
2022-10-25T18:25:52.243Z,3.40
2022-10-25T18:28:19.171Z,3.17
2022-10-25T18:30:45.735Z,3.90
2022-10-25T18:33:14.612Z,3.50
2022-10-25T18:35:41.584Z,3.42
2022-10-25T18:38:08.138Z,3.20
2022-10-25T18:40:35.441Z,2.78
2022-10-25T18:43:01.920Z,3.00
2022-10-25T18:45:28.426Z,3.25
2022-10-25T18:47:55.701Z,3.15
2022-10-25T18:50:22.480Z,3.35
2022-10-25T18:52:48.959Z,3.30
2022-10-25T18:55:15.581Z,2.85
2022-10-25T18:57:42.140Z,3.13
2022-10-25T19:00:09.020Z,3.63
2022-10-25T19:02:37.884Z,3.55
2022-10-25T19:05:04.898Z,4.32
2022-10-25T19:07:31.418Z,3.63
2022-10-25T19:09:57.925Z,4.28
2022-10-25T19:12:24.426Z,4.68
2022-10-25T19:14:50.919Z,6.63
2022-10-25T19:17:17.437Z,5.00
2022-10-25T19:19:43.964Z,5.07
2022-10-25T19:22:10.426Z,4.72
2022-10-25T19:24:38.213Z,5.95
2022-10-25T19:27:04.694Z,6.40
2022-10-25T19:29:31.250Z,5.28
2022-10-25T19:31:57.872Z,5.72
2022-10-25T19:34:24.353Z,4.95
2022-10-25T19:36:51.904Z,6.70
2022-10-25T19:39:18.409Z,6.32
2022-10-25T19:41:44.862Z,5.57
2022-10-25T19:44:11.362Z,5.55
2022-10-25T19:46:37.887Z,6.88
2022-10-25T19:49:04.359Z,5.80
2022-10-25T19:51:30.945Z,5.40
2022-10-25T19:53:57.437Z,6.30
2022-10-25T19:56:24.186Z,6.72
2022-10-25T19:58:51.145Z,5.68
2022-10-25T20:01:20.912Z,5.35
2022-10-25T20:03:50.431Z,6.13
2022-10-25T20:06:23.359Z,5.13
2022-10-25T20:08:51.654Z,4.78
2022-10-25T20:11:18.282Z,5.13
2022-10-25T20:13:45.081Z,5.57
2022-10-25T20:16:13.678Z,4.68
2022-10-25T20:18:41.681Z,5.25
2022-10-25T20:21:11.289Z,5.25
2022-10-25T20:23:38.275Z,5.72
2022-10-25T20:26:21.595Z,5.97
2022-10-25T20:28:49.000Z,5.78
2022-10-25T20:31:16.045Z,6.65
2022-10-25T20:33:43.167Z,6.97
2022-10-25T20:36:11.969Z,6.55
2022-10-25T20:38:38.605Z,7.80
2022-10-25T20:41:11.485Z,7.25
2022-10-25T20:43:38.623Z,7.15
2022-10-25T20:46:07.084Z,7.00
2022-10-25T20:48:34.179Z,7.05
2022-10-25T20:51:04.167Z,6.82
2022-10-25T20:53:33.714Z,7.13
2022-10-25T20:56:00.271Z,7.68
2022-10-25T20:58:27.047Z,7.68
2022-10-25T21:00:57.277Z,6.95
2022-10-25T21:03:28.523Z,6.78
2022-10-25T21:06:00.665Z,6.90
2022-10-25T21:08:27.301Z,6.45
2022-10-25T21:10:55.269Z,7.65
2022-10-25T21:13:22.791Z,6.80
2022-10-25T21:15:49.825Z,7.28
2022-10-25T21:18:17.005Z,6.40
2022-10-25T21:20:44.586Z,7.20
2022-10-25T21:23:11.128Z,7.57
2022-10-25T21:25:37.712Z,6.53
2022-10-25T21:28:05.989Z,7.35
2022-10-25T21:30:33.495Z,7.65
2022-10-25T21:33:00.095Z,7.10
2022-10-25T21:35:26.607Z,6.55
2022-10-25T21:37:53.480Z,7.78
2022-10-25T21:40:21.186Z,6.38
2022-10-25T21:42:47.872Z,6.50
2022-10-25T21:45:14.492Z,6.35
2022-10-25T21:47:41.082Z,7.30
2022-10-25T21:50:09.231Z,6.00
2022-10-25T21:52:36.527Z,5.93
2022-10-25T21:55:03.088Z,6.45
2022-10-25T21:57:30.628Z,6.57
2022-10-25T21:59:57.100Z,6.88
2022-10-25T22:02:23.820Z,6.63
2022-10-25T22:04:50.497Z,7.10
2022-10-25T22:07:17.009Z,6.57
2022-10-25T22:09:43.527Z,6.88
2022-10-25T22:12:10.017Z,6.18
2022-10-25T22:14:36.508Z,6.63
2022-10-25T22:17:03.052Z,6.55
2022-10-25T22:19:29.710Z,7.05
2022-10-25T22:21:56.180Z,6.63
2022-10-25T22:24:22.705Z,6.80
2022-10-25T22:26:50.486Z,7.10
2022-10-25T22:29:16.980Z,6.95
2022-10-25T22:31:43.536Z,6.88
2022-10-25T22:34:10.424Z,6.25
2022-10-25T22:36:39.108Z,6.07
2022-10-25T22:39:07.094Z,6.15
2022-10-25T22:41:33.973Z,5.60
2022-10-25T22:44:00.755Z,5.78
2022-10-25T22:46:29.592Z,5.93
2022-10-25T22:48:57.667Z,6.72
2022-10-25T22:51:25.483Z,5.47
2022-10-25T22:53:52.061Z,5.72
2022-10-25T22:56:23.856Z,6.47
2022-10-25T22:58:52.258Z,5.80
2022-10-25T23:01:29.731Z,6.65
2022-10-25T23:03:57.725Z,6.45
2022-10-25T23:06:26.674Z,6.00
2022-10-25T23:08:54.606Z,5.63
2022-10-25T23:11:23.497Z,6.57
2022-10-25T23:13:50.282Z,6.35
2022-10-25T23:16:17.234Z,5.93
2022-10-25T23:18:44.056Z,5.80
2022-10-25T23:21:15.634Z,5.75
2022-10-25T23:23:42.231Z,5.97
2022-10-25T23:26:13.749Z,6.20
2022-10-25T23:28:40.214Z,6.07
2022-10-25T23:31:09.243Z,6.40
2022-10-25T23:33:36.045Z,6.22
2022-10-25T23:36:03.899Z,6.55
2022-10-25T23:38:30.585Z,5.80
2022-10-25T23:40:57.145Z,6.20
2022-10-25T23:43:23.801Z,5.70
2022-10-25T23:45:50.618Z,5.43
2022-10-25T23:48:18.324Z,5.38
2022-10-25T23:50:44.911Z,4.90
2022-10-25T23:53:11.420Z,4.97
2022-10-25T23:55:38.673Z,5.00
2022-10-25T23:58:05.338Z,4.63
